createdAt,value
2023-01-08T00:00:30.806Z,96703.34
2023-01-08T00:01:32.708Z,96703.34
2023-01-08T00:02:34.529Z,96703.84
2023-01-08T00:03:37.064Z,96705.78
2023-01-08T00:04:38.974Z,96699.34
2023-01-08T00:05:41.000Z,96694.31
2023-01-08T00:06:42.861Z,96702.84
2023-01-08T00:07:44.693Z,96698.69
2023-01-08T00:08:46.442Z,96694.00
2023-01-08T00:09:50.778Z,96693.03
2023-01-08T00:10:56.182Z,96688.69
2023-01-08T00:11:58.069Z,96690.97
2023-01-08T00:12:59.960Z,96690.81
2023-01-08T00:14:01.786Z,96690.47
2023-01-08T00:15:04.158Z,96690.16
2023-01-08T00:16:07.040Z,96691.13
2023-01-08T00:17:09.015Z,96680.00
2023-01-08T00:18:10.806Z,96680.00
2023-01-08T00:19:13.420Z,96677.72
2023-01-08T00:20:15.301Z,96680.78
2023-01-08T00:21:17.177Z,96674.50
2023-01-08T00:22:19.067Z,96679.50
2023-01-08T00:23:20.895Z,96674.19
2023-01-08T00:24:22.794Z,96675.13
2023-01-08T00:25:24.631Z,96680.28
2023-01-08T00:26:26.517Z,96679.00
2023-01-08T00:27:28.383Z,96668.84
2023-01-08T00:28:30.301Z,96667.56
2023-01-08T00:29:32.112Z,96668.53
2023-01-08T00:30:34.141Z,96663.53
2023-01-08T00:31:35.969Z,96665.97
2023-01-08T00:32:37.995Z,96664.84
2023-01-08T00:33:40.536Z,96670.34
2023-01-08T00:34:42.299Z,96660.47
2023-01-08T00:35:44.123Z,96664.53
2023-01-08T00:36:45.880Z,96665.81
2023-01-08T00:37:49.723Z,96656.78
2023-01-08T00:38:51.544Z,96666.44
2023-01-08T00:39:53.398Z,96664.81
2023-01-08T00:40:55.435Z,96653.22
2023-01-08T00:41:57.255Z,96655.78
2023-01-08T00:42:59.130Z,96657.88
2023-01-08T00:44:00.973Z,96652.59
2023-01-08T00:45:02.732Z,96651.94
2023-01-08T00:46:04.872Z,96648.22
2023-01-08T00:47:06.894Z,96655.81
2023-01-08T00:48:08.751Z,96646.94
2023-01-08T00:49:10.566Z,96650.19
2023-01-08T00:50:12.428Z,96652.94
2023-01-08T00:51:14.223Z,96651.16
2023-01-08T00:52:16.043Z,96653.25
2023-01-08T00:53:18.322Z,96656.16
2023-01-08T00:54:20.134Z,96648.09
2023-01-08T00:55:22.043Z,96652.75
2023-01-08T00:56:23.868Z,96647.72
2023-01-08T00:57:25.652Z,96644.50
2023-01-08T00:58:27.595Z,96646.13
2023-01-08T00:59:29.481Z,96647.13
2023-01-08T01:00:31.223Z,96640.34
2023-01-08T01:01:33.183Z,96642.94
2023-01-08T01:02:36.957Z,96646.94
2023-01-08T01:03:39.044Z,96652.59
2023-01-08T01:04:40.883Z,96644.69
2023-01-08T01:05:42.743Z,96651.44
2023-01-08T01:06:45.276Z,96654.50
2023-01-08T01:07:49.425Z,96647.44
2023-01-08T01:08:51.387Z,96649.88
2023-01-08T01:09:53.208Z,96649.50
2023-01-08T01:10:55.013Z,96639.06
2023-01-08T01:11:56.851Z,96648.56
2023-01-08T01:12:58.645Z,96645.19
2023-01-08T01:14:00.474Z,96636.16
2023-01-08T01:15:02.322Z,96639.53
2023-01-08T01:16:04.746Z,96642.28
2023-01-08T01:17:06.623Z,96645.16
2023-01-08T01:18:08.768Z,96639.19
2023-01-08T01:19:10.848Z,96639.34
2023-01-08T01:20:16.511Z,96637.41
2023-01-08T01:21:21.419Z,96636.63
2023-01-08T01:22:23.219Z,96636.13
2023-01-08T01:23:25.029Z,96638.69
2023-01-08T01:24:28.124Z,96635.97
2023-01-08T01:25:29.901Z,96642.56
2023-01-08T01:26:32.579Z,96640.34
2023-01-08T01:27:34.400Z,96640.34
2023-01-08T01:28:36.263Z,96646.94
2023-01-08T01:29:38.068Z,96648.56
2023-01-08T01:30:39.901Z,96642.28
2023-01-08T01:31:41.832Z,96639.69
2023-01-08T01:32:43.613Z,96643.22
2023-01-08T01:33:45.707Z,96644.50
2023-01-08T01:34:47.455Z,96641.94
2023-01-08T01:35:49.299Z,96641.94
2023-01-08T01:36:51.197Z,96639.69
2023-01-08T01:37:52.974Z,96636.78
2023-01-08T01:38:56.146Z,96643.25
2023-01-08T01:39:58.440Z,96642.44
2023-01-08T01:41:00.344Z,96641.81
2023-01-08T01:42:02.238Z,96639.06
2023-01-08T01:43:04.087Z,96641.00
2023-01-08T01:44:24.444Z,96643.44
2023-01-08T01:45:28.012Z,96642.78
2023-01-08T01:46:32.526Z,96637.63
2023-01-08T01:47:38.603Z,96639.06
2023-01-08T01:48:40.370Z,96640.34
2023-01-08T01:49:44.393Z,96639.84
2023-01-08T01:50:47.557Z,96639.34
2023-01-08T01:51:51.300Z,96631.31
2023-01-08T01:53:05.732Z,96633.41
2023-01-08T01:54:09.176Z,96622.47
2023-01-08T01:55:14.719Z,96631.03
2023-01-08T01:56:16.621Z,96620.88
2023-01-08T01:57:18.779Z,96610.41
2023-01-08T01:58:24.955Z,96618.75
2023-01-08T01:59:26.873Z,96612.81
2023-01-08T02:00:29.396Z,96611.84
2023-01-08T02:01:32.167Z,96611.84
2023-01-08T02:02:34.276Z,96611.34
2023-01-08T02:03:37.938Z,96604.25
2023-01-08T02:04:39.754Z,96614.06
2023-01-08T02:05:47.420Z,96605.53
2023-01-08T02:06:54.885Z,96599.59
2023-01-08T02:08:02.089Z,96603.88
2023-01-08T02:09:22.251Z,96592.31
2023-01-08T02:10:37.563Z,96593.28
2023-01-08T02:12:16.899Z,96593.59
2023-01-08T02:13:23.301Z,96597.00
2023-01-08T02:14:35.013Z,96592.31
2023-01-08T02:15:52.008Z,96588.63
2023-01-08T02:16:57.513Z,96597.16
2023-01-08T02:18:10.096Z,96595.22
2023-01-08T02:19:20.411Z,96593.94
2023-01-08T02:20:29.875Z,96584.59
2023-01-08T02:21:31.610Z,96593.13
2023-01-08T02:22:33.423Z,96590.88
2023-01-08T02:23:56.609Z,96591.81
2023-01-08T02:25:01.509Z,96586.66
2023-01-08T02:26:06.764Z,96586.38
2023-01-08T02:27:09.319Z,96585.09
2023-01-08T02:28:12.058Z,96577.50
2023-01-08T02:29:19.292Z,96580.28
2023-01-08T02:30:21.346Z,96576.56
2023-01-08T02:31:24.740Z,96583.16
2023-01-08T02:32:27.365Z,96586.22
2023-01-08T02:33:30.021Z,96582.53
2023-01-08T02:34:32.984Z,96573.34
2023-01-08T02:35:40.753Z,96576.88
2023-01-08T02:36:42.655Z,96570.91
2023-01-08T02:37:44.575Z,96571.72
2023-01-08T02:39:17.194Z,96566.56
2023-01-08T02:40:27.734Z,96567.41
2023-01-08T02:41:39.068Z,96573.66
2023-01-08T02:42:43.703Z,96573.78
2023-01-08T02:43:50.453Z,96568.50
2023-01-08T02:44:56.079Z,96564.63
2023-01-08T02:46:01.456Z,96564.19
2023-01-08T02:47:06.225Z,96565.94
2023-01-08T02:48:11.309Z,96559.84
2023-01-08T02:49:14.190Z,96554.53
2023-01-08T02:50:26.793Z,96560.78
2023-01-08T02:51:31.059Z,96552.41
2023-01-08T02:52:35.195Z,96552.59
2023-01-08T02:53:40.005Z,96552.09
2023-01-08T02:54:43.402Z,96546.47
2023-01-08T02:55:47.915Z,96543.09
2023-01-08T02:56:52.434Z,96549.34
2023-01-08T02:57:54.335Z,96545.47
2023-01-08T02:58:57.487Z,96540.31
2023-01-08T02:59:59.299Z,96534.22
2023-01-08T03:01:05.046Z,96538.25
2023-01-08T03:02:07.764Z,96540.03
2023-01-08T03:03:12.769Z,96544.69
2023-01-08T03:04:16.796Z,96538.44
2023-01-08T03:05:24.269Z,96540.19
2023-01-08T03:06:27.939Z,96535.69
2023-01-08T03:07:29.919Z,96542.13
2023-01-08T03:08:34.314Z,96542.47
2023-01-08T03:09:37.545Z,96544.88
2023-01-08T03:10:41.773Z,96540.19
2023-01-08T03:11:59.829Z,96539.88
2023-01-08T03:13:11.950Z,96540.19
2023-01-08T03:14:13.647Z,96540.19
2023-01-08T03:15:19.979Z,96530.72
2023-01-08T03:16:26.510Z,96529.44
2023-01-08T03:17:32.941Z,96527.50
2023-01-08T03:18:37.646Z,96526.69
2023-01-08T03:19:44.877Z,96530.88
2023-01-08T03:20:49.011Z,96524.09
2023-01-08T03:21:51.803Z,96526.38
2023-01-08T03:22:56.303Z,96530.88
2023-01-08T03:23:58.179Z,96530.06
2023-01-08T03:25:00.304Z,96520.56
2023-01-08T03:26:04.086Z,96518.66
2023-01-08T03:27:09.936Z,96522.66
2023-01-08T03:28:23.396Z,96522.81
2023-01-08T03:29:26.337Z,96517.50
2023-01-08T03:30:29.693Z,96513.81
2023-01-08T03:31:34.859Z,96519.28
2023-01-08T03:32:37.264Z,96517.06
2023-01-08T03:33:39.322Z,96513.50
2023-01-08T03:34:42.452Z,96524.13
2023-01-08T03:35:45.444Z,96522.66
2023-01-08T03:36:48.800Z,96527.34
2023-01-08T03:38:03.873Z,96522.50
2023-01-08T03:39:08.420Z,96526.34
2023-01-08T03:40:14.180Z,96523.28
2023-01-08T03:41:19.411Z,96523.78
2023-01-08T03:42:21.887Z,96526.19
2023-01-08T03:43:23.872Z,96516.53
2023-01-08T03:44:25.909Z,96519.25
2023-01-08T03:45:30.496Z,96514.28
2023-01-08T03:46:33.662Z,96509.94
2023-01-08T03:47:36.788Z,96505.56
2023-01-08T03:48:39.242Z,96507.84
2023-01-08T03:49:43.308Z,96509.59
2023-01-08T03:50:45.267Z,96506.06
2023-01-08T03:51:47.980Z,96510.41
2023-01-08T03:52:49.780Z,96509.44
2023-01-08T03:53:53.748Z,96506.06
2023-01-08T03:54:55.626Z,96506.06
2023-01-08T03:55:57.976Z,96512.81
2023-01-08T03:56:59.888Z,96509.28
2023-01-08T03:58:01.820Z,96505.91
2023-01-08T03:59:03.672Z,96505.88
2023-01-08T04:00:06.312Z,96502.38
2023-01-08T04:01:08.246Z,96495.28
2023-01-08T04:02:10.414Z,96498.34
2023-01-08T04:03:12.353Z,96505.72
2023-01-08T04:04:14.388Z,96496.88
2023-01-08T04:05:16.271Z,96497.69
2023-01-08T04:06:18.060Z,96495.09
2023-01-08T04:07:19.913Z,96498.31
2023-01-08T04:08:21.758Z,96498.31
2023-01-08T04:09:23.937Z,96494.94
2023-01-08T04:10:25.941Z,96493.66
2023-01-08T04:11:27.884Z,96491.25
2023-01-08T04:12:29.819Z,96490.41
2023-01-08T04:13:31.644Z,96486.91
2023-01-08T04:14:33.498Z,96486.91
2023-01-08T04:15:35.342Z,96487.06
2023-01-08T04:16:37.163Z,96489.78
2023-01-08T04:17:39.127Z,96483.53
2023-01-08T04:18:40.956Z,96481.78
2023-01-08T04:19:42.803Z,96484.84
2023-01-08T04:20:48.561Z,96486.44
2023-01-08T04:21:51.871Z,96474.34
2023-01-08T04:22:53.659Z,96474.84
2023-01-08T04:23:56.075Z,96473.88
2023-01-08T04:24:58.004Z,96471.31
2023-01-08T04:25:59.847Z,96471.31
2023-01-08T04:27:01.808Z,96463.91
2023-01-08T04:28:03.717Z,96461.00
2023-01-08T04:29:05.646Z,96462.28
2023-01-08T04:30:07.888Z,96467.88
2023-01-08T04:31:10.047Z,96464.53
2023-01-08T04:32:12.004Z,96460.34
2023-01-08T04:33:14.125Z,96464.22
2023-01-08T04:34:15.941Z,96470.81
2023-01-08T04:35:17.753Z,96465.53
2023-01-08T04:36:19.630Z,96469.53
2023-01-08T04:37:21.595Z,96464.03
2023-01-08T04:38:23.684Z,96460.50
2023-01-08T04:39:25.531Z,96462.09
2023-01-08T04:40:27.509Z,96457.94
2023-01-08T04:41:29.352Z,96463.56
2023-01-08T04:42:31.183Z,96460.66
2023-01-08T04:43:33.326Z,96453.56
2023-01-08T04:44:35.138Z,96457.75
2023-01-08T04:45:36.902Z,96460.97
2023-01-08T04:46:38.817Z,96458.72
2023-01-08T04:47:40.695Z,96459.50
2023-01-08T04:48:42.501Z,96459.19
2023-01-08T04:49:44.333Z,96461.44
2023-01-08T04:50:46.126Z,96456.44
2023-01-08T04:51:47.993Z,96463.53
2023-01-08T04:52:49.779Z,96459.19
2023-01-08T04:53:51.661Z,96460.81
2023-01-08T04:54:53.492Z,96456.13
2023-01-08T04:55:55.320Z,96464.66
2023-01-08T04:56:57.167Z,96457.13
2023-01-08T04:57:59.093Z,96446.81
2023-01-08T04:59:00.936Z,96452.75
2023-01-08T05:00:02.778Z,96458.56
2023-01-08T05:01:21.294Z,96450.81
2023-01-08T05:02:23.433Z,96437.63
2023-01-08T05:03:25.467Z,96448.22
2023-01-08T05:04:27.420Z,96440.50
2023-01-08T05:05:29.229Z,96440.19
2023-01-08T05:06:31.993Z,96447.75
2023-01-08T05:07:33.834Z,96449.41
2023-01-08T05:08:36.115Z,96445.19
2023-01-08T05:09:37.979Z,96443.94
2023-01-08T05:10:39.903Z,96445.75
2023-01-08T05:11:43.459Z,96447.50
2023-01-08T05:12:45.242Z,96440.13
2023-01-08T05:13:50.361Z,96443.34
2023-01-08T05:14:52.274Z,96438.19
2023-01-08T05:15:54.105Z,96433.69
2023-01-08T05:16:55.945Z,96426.91
2023-01-08T05:17:58.926Z,96426.25
2023-01-08T05:19:00.688Z,96417.25
2023-01-08T05:20:02.571Z,96420.81
2023-01-08T05:21:05.631Z,96413.06
2023-01-08T05:22:07.483Z,96406.31
2023-01-08T05:23:09.343Z,96403.44
2023-01-08T05:24:11.197Z,96401.50
2023-01-08T05:25:13.131Z,96399.88
2023-01-08T05:26:15.536Z,96395.09
2023-01-08T05:27:17.630Z,96391.88
2023-01-08T05:28:19.510Z,96386.06
2023-01-08T05:29:21.399Z,96384.59
2023-01-08T05:30:23.209Z,96382.38
2023-01-08T05:31:25.089Z,96378.66
2023-01-08T05:32:26.973Z,96372.38
2023-01-08T05:33:28.893Z,96372.72
2023-01-08T05:34:30.748Z,96368.06
2023-01-08T05:35:32.648Z,96372.09
2023-01-08T05:36:34.476Z,96371.75
2023-01-08T05:37:36.878Z,96367.75
2023-01-08T05:38:39.251Z,96363.22
2023-01-08T05:39:41.052Z,96368.72
2023-01-08T05:40:42.912Z,96364.84
2023-01-08T05:41:44.778Z,96359.19
2023-01-08T05:42:46.661Z,96361.78
2023-01-08T05:43:48.646Z,96359.50
2023-01-08T05:44:50.490Z,96352.28
2023-01-08T05:45:52.546Z,96354.56
2023-01-08T05:46:54.518Z,96356.63
2023-01-08T05:47:56.432Z,96347.78
2023-01-08T05:48:58.316Z,96360.66
2023-01-08T05:50:00.227Z,96355.84
2023-01-08T05:51:02.223Z,96358.69
2023-01-08T05:52:04.089Z,96345.53
2023-01-08T05:53:09.478Z,96340.22
2023-01-08T05:54:11.317Z,96340.53
2023-01-08T05:55:13.171Z,96344.38
2023-01-08T05:56:15.236Z,96343.44
2023-01-08T05:57:17.091Z,96342.28
2023-01-08T05:58:19.480Z,96340.34
2023-01-08T05:59:21.352Z,96344.84
2023-01-08T06:00:24.671Z,96344.19
2023-01-08T06:01:26.665Z,96337.63
2023-01-08T06:02:28.451Z,96344.19
2023-01-08T06:03:30.245Z,96344.84
2023-01-08T06:04:32.189Z,96345.31
2023-01-08T06:05:34.046Z,96340.97
2023-01-08T06:06:35.839Z,96332.59
2023-01-08T06:07:37.666Z,96324.88
2023-01-08T06:08:39.853Z,96337.75
2023-01-08T06:09:41.755Z,96336.13
2023-01-08T06:10:43.592Z,96330.84
2023-01-08T06:11:45.430Z,96332.50
2023-01-08T06:12:47.312Z,96332.94
2023-01-08T06:13:49.151Z,96335.03
2023-01-08T06:14:51.066Z,96328.63
2023-01-08T06:15:53.151Z,96338.09
2023-01-08T06:16:54.986Z,96333.56
2023-01-08T06:17:57.518Z,96332.31
2023-01-08T06:18:59.292Z,96333.16
2023-01-08T06:20:01.232Z,96335.38
2023-01-08T06:21:03.066Z,96332.16
2023-01-08T06:22:05.107Z,96338.09
2023-01-08T06:23:08.958Z,96334.59
2023-01-08T06:24:10.925Z,96338.28
2023-01-08T06:25:13.315Z,96339.25
2023-01-08T06:26:15.173Z,96334.09
2023-01-08T06:27:17.066Z,96337.78
2023-01-08T06:28:18.894Z,96344.06
2023-01-08T06:29:20.756Z,96346.94
2023-01-08T06:30:22.873Z,96350.47
2023-01-08T06:31:24.718Z,96347.38
2023-01-08T06:32:26.479Z,96344.31
2023-01-08T06:33:28.818Z,96344.00
2023-01-08T06:34:30.720Z,96349.78
2023-01-08T06:35:32.607Z,96351.06
2023-01-08T06:36:34.485Z,96352.50
2023-01-08T06:37:36.317Z,96344.75
2023-01-08T06:38:38.030Z,96349.63
2023-01-08T06:39:39.831Z,96349.28
2023-01-08T06:40:41.785Z,96340.41
2023-01-08T06:41:44.619Z,96343.16
2023-01-08T06:42:46.706Z,96342.03
2023-01-08T06:43:48.528Z,96346.50
2023-01-08T06:44:50.340Z,96348.94
2023-01-08T06:45:55.536Z,96340.06
2023-01-08T06:46:57.325Z,96346.00
2023-01-08T06:48:02.734Z,96345.84
2023-01-08T06:49:04.541Z,96347.63
2023-01-08T06:50:07.275Z,96349.22
2023-01-08T06:51:09.147Z,96345.69
2023-01-08T06:52:11.290Z,96345.22
2023-01-08T06:53:13.107Z,96341.66
2023-01-08T06:54:14.927Z,96350.84
2023-01-08T06:55:16.744Z,96342.28
2023-01-08T06:56:18.622Z,96344.06
2023-01-08T06:57:20.527Z,96344.84
2023-01-08T06:58:22.917Z,96334.38
2023-01-08T06:59:24.857Z,96342.91
2023-01-08T07:00:27.533Z,96345.69
2023-01-08T07:01:29.532Z,96336.97
2023-01-08T07:02:31.520Z,96338.41
2023-01-08T07:03:33.536Z,96338.91
2023-01-08T07:04:35.446Z,96334.25
2023-01-08T07:05:37.339Z,96329.00
2023-01-08T07:06:39.292Z,96326.56
2023-01-08T07:07:41.213Z,96327.22
2023-01-08T07:08:43.759Z,96327.69
2023-01-08T07:09:45.651Z,96326.06
2023-01-08T07:10:47.459Z,96325.47
2023-01-08T07:11:49.352Z,96329.97
2023-01-08T07:12:51.179Z,96325.13
2023-01-08T07:13:53.082Z,96323.34
2023-01-08T07:14:54.840Z,96326.44
2023-01-08T07:15:56.767Z,96327.72
2023-01-08T07:16:58.678Z,96329.16
2023-01-08T07:18:00.446Z,96322.06
2023-01-08T07:19:02.338Z,96328.47
2023-01-08T07:20:04.319Z,96326.41
2023-01-08T07:21:06.889Z,96323.03
2023-01-08T07:22:08.827Z,96323.38
2023-01-08T07:23:11.130Z,96320.00
2023-01-08T07:24:13.054Z,96325.81
2023-01-08T07:25:14.902Z,96323.75
2023-01-08T07:26:16.838Z,96325.69
2023-01-08T07:27:19.466Z,96323.75
2023-01-08T07:28:21.274Z,96317.66
2023-01-08T07:29:23.203Z,96317.47
2023-01-08T07:30:30.221Z,96320.88
2023-01-08T07:31:32.529Z,96322.31
2023-01-08T07:32:34.433Z,96327.44
2023-01-08T07:33:36.354Z,96324.91
2023-01-08T07:34:38.215Z,96320.56
2023-01-08T07:35:40.063Z,96325.22
2023-01-08T07:36:41.908Z,96320.91
2023-01-08T07:37:43.918Z,96321.19
2023-01-08T07:38:45.688Z,96322.63
2023-01-08T07:39:47.531Z,96329.53
2023-01-08T07:40:49.547Z,96327.13
2023-01-08T07:41:51.314Z,96331.31
2023-01-08T07:43:03.686Z,96326.84
2023-01-08T07:44:05.567Z,96323.00
2023-01-08T07:45:08.516Z,96327.50
2023-01-08T07:46:10.824Z,96332.94
2023-01-08T07:47:12.582Z,96327.16
2023-01-08T07:48:18.104Z,96326.34
2023-01-08T07:49:19.958Z,96335.50
2023-01-08T07:50:21.841Z,96325.06
2023-01-08T07:51:23.826Z,96331.31
2023-01-08T07:52:27.779Z,96324.25
2023-01-08T07:53:29.818Z,96332.44
2023-01-08T07:54:31.668Z,96321.97
2023-01-08T07:55:33.550Z,96318.09
2023-01-08T07:56:35.362Z,96311.47
2023-01-08T07:57:37.369Z,96317.09
2023-01-08T07:58:39.343Z,96317.41
2023-01-08T07:59:41.245Z,96309.97
2023-01-08T08:00:43.044Z,96309.97
2023-01-08T08:01:45.052Z,96308.19
2023-01-08T08:02:47.081Z,96309.47
2023-01-08T08:03:48.985Z,96307.50
2023-01-08T08:04:51.070Z,96307.03
2023-01-08T08:05:53.181Z,96304.09
2023-01-08T08:06:55.589Z,96309.09
2023-01-08T08:07:57.497Z,96307.03
2023-01-08T08:09:00.264Z,96307.81
2023-01-08T08:10:02.908Z,96306.53
2023-01-08T08:11:04.899Z,96305.38
2023-01-08T08:12:06.854Z,96303.44
2023-01-08T08:13:09.091Z,96305.53
2023-01-08T08:14:10.876Z,96304.06
2023-01-08T08:15:12.738Z,96301.84
2023-01-08T08:16:14.651Z,96304.63
2023-01-08T08:17:16.578Z,96296.25
2023-01-08T08:18:18.433Z,96291.25
2023-01-08T08:19:20.620Z,96288.69
2023-01-08T08:20:22.458Z,96288.16
2023-01-08T08:21:24.420Z,96292.00
2023-01-08T08:22:26.790Z,96280.63
2023-01-08T08:23:28.761Z,96285.78
2023-01-08T08:24:30.654Z,96279.00
2023-01-08T08:25:32.480Z,96287.38
2023-01-08T08:26:34.331Z,96276.28
2023-01-08T08:27:36.355Z,96280.84
2023-01-08T08:28:38.193Z,96267.47
2023-01-08T08:29:39.988Z,96262.34
2023-01-08T08:30:42.769Z,96269.91
2023-01-08T08:31:44.789Z,96267.47
2023-01-08T08:32:46.690Z,96261.69
2023-01-08T08:33:48.543Z,96256.53
2023-01-08T08:34:51.122Z,96258.31
2023-01-08T08:35:52.885Z,96258.31
2023-01-08T08:36:54.703Z,96254.97
2023-01-08T08:37:57.313Z,96251.06
2023-01-08T08:38:59.172Z,96253.59
2023-01-08T08:40:01.026Z,96252.28
2023-01-08T08:41:02.907Z,96239.75
2023-01-08T08:42:04.841Z,96234.63
2023-01-08T08:43:06.662Z,96243.97
2023-01-08T08:44:08.774Z,96231.53
2023-01-08T08:45:10.660Z,96231.09
2023-01-08T08:46:12.575Z,96231.09
2023-01-08T08:47:15.013Z,96225.16
2023-01-08T08:48:17.260Z,96220.22
2023-01-08T08:49:19.078Z,96218.94
2023-01-08T08:50:21.544Z,96221.53
2023-01-08T08:51:23.406Z,96231.78
2023-01-08T08:52:25.197Z,96242.41
2023-01-08T08:53:27.769Z,96239.34
2023-01-08T08:54:29.715Z,96250.75
2023-01-08T08:55:31.548Z,96256.22
2023-01-08T08:56:33.545Z,96255.88
2023-01-08T08:57:35.399Z,96252.78
2023-01-08T08:58:37.247Z,96256.81
2023-01-08T08:59:39.070Z,96244.56
2023-01-08T09:00:41.752Z,96245.34
2023-01-08T09:01:43.695Z,96242.94
2023-01-08T09:02:45.791Z,96242.47
2023-01-08T09:03:47.686Z,96252.00
2023-01-08T09:04:49.512Z,96246.50
2023-01-08T09:05:51.376Z,96249.09
2023-01-08T09:06:53.282Z,96250.34
2023-01-08T09:07:55.183Z,96255.31
2023-01-08T09:08:57.042Z,96257.09
2023-01-08T09:09:58.903Z,96262.88
2023-01-08T09:11:02.605Z,96262.56
2023-01-08T09:12:04.552Z,96260.59
2023-01-08T09:13:06.505Z,96270.06
2023-01-08T09:14:08.350Z,96265.25
2023-01-08T09:15:10.363Z,96260.88
2023-01-08T09:16:12.242Z,96261.50
2023-01-08T09:17:14.087Z,96257.81
2023-01-08T09:18:16.156Z,96265.34
2023-01-08T09:19:18.126Z,96265.66
2023-01-08T09:20:20.016Z,96260.97
2023-01-08T09:21:21.945Z,96266.91
2023-01-08T09:22:23.823Z,96262.41
2023-01-08T09:23:25.758Z,96260.09
2023-01-08T09:24:27.582Z,96265.25
2023-01-08T09:25:30.275Z,96262.66
2023-01-08T09:26:32.173Z,96263.50
2023-01-08T09:27:34.082Z,96261.09
2023-01-08T09:28:35.893Z,96266.41
2023-01-08T09:29:37.710Z,96270.94
2023-01-08T09:30:40.088Z,96270.13
2023-01-08T09:31:41.955Z,96267.19
2023-01-08T09:32:43.912Z,96271.22
2023-01-08T09:33:47.726Z,96269.28
2023-01-08T09:34:49.543Z,96273.28
2023-01-08T09:35:51.394Z,96268.13
2023-01-08T09:36:53.194Z,96280.69
2023-01-08T09:37:56.165Z,96273.28
2023-01-08T09:38:58.002Z,96278.97
2023-01-08T09:40:02.551Z,96275.56
2023-01-08T09:41:08.045Z,96275.22
2023-01-08T09:42:12.160Z,96280.69
2023-01-08T09:43:21.378Z,96277.66
2023-01-08T09:44:26.736Z,96266.97
2023-01-08T09:45:30.292Z,96264.22
2023-01-08T09:46:32.344Z,96262.28
2023-01-08T09:47:43.453Z,96273.69
2023-01-08T09:48:45.820Z,96271.56
2023-01-08T09:49:48.388Z,96272.22
2023-01-08T09:50:50.457Z,96273.00
2023-01-08T09:51:52.642Z,96274.59
2023-01-08T09:52:55.329Z,96277.38
2023-01-08T09:53:58.054Z,96282.06
2023-01-08T09:55:02.803Z,96278.50
2023-01-08T09:56:10.904Z,96288.00
2023-01-08T09:57:20.834Z,96274.47
2023-01-08T09:58:50.828Z,96273.31
2023-01-08T09:59:52.778Z,96278.84
2023-01-08T10:00:54.746Z,96276.53
2023-01-08T10:01:56.655Z,96278.94
2023-01-08T10:02:58.675Z,96271.03
2023-01-08T10:04:04.703Z,96272.63
2023-01-08T10:05:11.901Z,96275.56
2023-01-08T10:06:14.867Z,96274.47
2023-01-08T10:07:24.799Z,96271.28
2023-01-08T10:08:26.638Z,96282.22
2023-01-08T10:09:29.916Z,96272.53
2023-01-08T10:10:32.847Z,96275.13
2023-01-08T10:11:42.617Z,96271.75
2023-01-08T10:12:44.614Z,96282.69
2023-01-08T10:13:57.380Z,96279.31
2023-01-08T10:15:03.765Z,96281.69
2023-01-08T10:16:10.565Z,96281.53
2023-01-08T10:17:21.389Z,96282.63
2023-01-08T10:18:25.762Z,96286.97
2023-01-08T10:19:27.509Z,96286.97
2023-01-08T10:20:29.913Z,96278.63
2023-01-08T10:21:33.479Z,96273.25
2023-01-08T10:22:35.489Z,96271.16
2023-01-08T10:23:37.429Z,96274.34
2023-01-08T10:24:39.999Z,96275.34
2023-01-08T10:26:07.834Z,96277.94
2023-01-08T10:27:17.501Z,96273.41
2023-01-08T10:28:23.976Z,96272.06
2023-01-08T10:29:25.899Z,96270.13
2023-01-08T10:30:33.565Z,96270.38
2023-01-08T10:31:39.495Z,96272.63
2023-01-08T10:32:47.673Z,96280.38
2023-01-08T10:33:50.080Z,96276.16
2023-01-08T10:34:56.233Z,96280.19
2023-01-08T10:36:00.461Z,96299.69
2023-01-08T10:37:14.173Z,96308.22
2023-01-08T10:38:26.115Z,96305.31
2023-01-08T10:39:29.990Z,96302.72
2023-01-08T10:40:34.792Z,96301.91
2023-01-08T10:41:40.626Z,96301.75
2023-01-08T10:42:42.640Z,96298.81
2023-01-08T10:44:03.726Z,96307.34
2023-01-08T10:45:08.106Z,96307.06
2023-01-08T10:46:15.243Z,96299.22
2023-01-08T10:47:18.409Z,96297.50
2023-01-08T10:48:20.847Z,96307.81
2023-01-08T10:49:43.993Z,96299.59
2023-01-08T10:50:45.884Z,96304.22
2023-01-08T10:51:53.801Z,96307.25
2023-01-08T10:52:57.213Z,96316.44
2023-01-08T10:54:01.352Z,96306.09
2023-01-08T10:55:32.260Z,96314.94
2023-01-08T10:56:41.764Z,96314.41
2023-01-08T10:57:52.791Z,96315.03
2023-01-08T10:58:55.275Z,96301.97
2023-01-08T10:59:57.245Z,96303.13
2023-01-08T11:01:20.210Z,96303.63
2023-01-08T11:02:38.276Z,96306.66
2023-01-08T11:03:41.029Z,96305.69
2023-01-08T11:04:43.902Z,96306.66
2023-01-08T11:05:46.287Z,96307.44
2023-01-08T11:06:48.451Z,96310.22
2023-01-08T11:07:56.394Z,96309.25
2023-01-08T11:09:00.217Z,96316.03
2023-01-08T11:10:02.905Z,96317.97
2023-01-08T11:11:06.780Z,96311.47
2023-01-08T11:12:27.207Z,96307.91
2023-01-08T11:13:29.803Z,96309.16
2023-01-08T11:14:35.338Z,96309.63
2023-01-08T11:15:43.874Z,96310.72
2023-01-08T11:16:46.934Z,96310.97
2023-01-08T11:17:48.878Z,96316.13
2023-01-08T11:18:52.033Z,96314.09
2023-01-08T11:19:55.795Z,96312.66
2023-01-08T11:21:08.786Z,96316.03
2023-01-08T11:22:21.655Z,96311.66
2023-01-08T11:23:25.116Z,96316.03
2023-01-08T11:24:37.158Z,96313.47
2023-01-08T11:25:41.017Z,96316.84
2023-01-08T11:26:46.264Z,96317.00
2023-01-08T11:27:48.767Z,96313.28
2023-01-08T11:28:53.679Z,96312.13
2023-01-08T11:30:18.782Z,96308.38
2023-01-08T11:31:46.922Z,96316.50
2023-01-08T11:33:10.037Z,96312.94
2023-01-08T11:34:32.078Z,96313.56
2023-01-08T11:35:39.556Z,96310.16
2023-01-08T11:36:47.274Z,96315.97
2023-01-08T11:38:00.236Z,96297.09
2023-01-08T11:39:02.664Z,96303.84
2023-01-08T11:40:11.829Z,96305.19
2023-01-08T11:41:24.146Z,96300.47
2023-01-08T11:42:41.911Z,96309.09
2023-01-08T11:43:43.694Z,96298.09
2023-01-08T11:44:57.400Z,96297.19
2023-01-08T11:46:14.952Z,96292.84
2023-01-08T11:47:31.883Z,96298.34
2023-01-08T11:48:48.084Z,96298.34
2023-01-08T11:50:05.481Z,96298.97
2023-01-08T11:51:09.982Z,96297.00
2023-01-08T11:52:14.299Z,96294.25
2023-01-08T11:53:21.706Z,96294.44
2023-01-08T11:54:26.660Z,96304.13
2023-01-08T11:55:32.520Z,96294.25
2023-01-08T11:56:36.879Z,96290.69
2023-01-08T11:57:53.880Z,96282.31
2023-01-08T11:59:13.500Z,96285.09
2023-01-08T12:00:24.854Z,96291.06
2023-01-08T12:01:35.101Z,96286.94
2023-01-08T12:02:39.429Z,96275.91
2023-01-08T12:03:47.363Z,96272.59
2023-01-08T12:05:00.911Z,96278.59
2023-01-08T12:06:13.840Z,96272.97
2023-01-08T12:07:21.304Z,96275.19
2023-01-08T12:08:28.997Z,96273.03
2023-01-08T12:09:40.295Z,96274.28
2023-01-08T12:10:45.083Z,96263.16
2023-01-08T12:11:50.017Z,96260.94
2023-01-08T12:12:58.024Z,96266.09
2023-01-08T12:14:06.687Z,96266.53
2023-01-08T12:15:26.986Z,96261.81
2023-01-08T12:16:52.572Z,96267.88
2023-01-08T12:18:05.036Z,96263.34
2023-01-08T12:19:25.793Z,96260.38
2023-01-08T12:20:30.116Z,96257.06
2023-01-08T12:21:33.331Z,96258.97
2023-01-08T12:22:47.376Z,96258.41
2023-01-08T12:23:52.465Z,96262.69
2023-01-08T12:25:13.090Z,96252.19
2023-01-08T12:26:33.540Z,96254.66
2023-01-08T12:27:55.825Z,96255.06
2023-01-08T12:28:57.118Z,96259.09
2023-01-08T12:30:06.669Z,96253.94
2023-01-08T12:31:21.893Z,96251.34
2023-01-08T12:32:27.537Z,96257.75
2023-01-08T12:33:42.738Z,96250.84